createdAt,value
2019-01-09T00:01:06.662Z,2.20
2019-01-09T00:03:36.126Z,2.00
2019-01-09T00:06:05.560Z,2.20
2019-01-09T00:08:34.878Z,1.70
2019-01-09T00:11:04.308Z,2.27
2019-01-09T00:13:33.564Z,2.47
2019-01-09T00:16:02.811Z,2.30
2019-01-09T00:18:32.193Z,2.47
2019-01-09T00:21:05.147Z,2.37
2019-01-09T00:31:28.673Z,2.20
2019-01-09T02:23:41.707Z,3.47
2019-01-09T02:26:37.791Z,2.87
2019-01-09T02:29:31.429Z,2.40
2019-01-09T02:32:35.118Z,2.33
2019-01-09T02:35:04.350Z,2.83
2019-01-09T02:37:33.617Z,2.87
2019-01-09T02:40:02.940Z,2.33
2019-01-09T02:42:32.198Z,3.40
2019-01-09T02:45:01.465Z,2.57
2019-01-09T02:47:30.712Z,3.87
2019-01-09T02:49:59.989Z,3.13
2019-01-09T02:52:29.308Z,3.33
2019-01-09T02:54:58.638Z,2.60
2019-01-09T02:57:27.920Z,4.43
2019-01-09T02:59:57.121Z,3.43
2019-01-09T03:02:26.340Z,2.00
2019-01-09T03:04:55.603Z,3.17
2019-01-09T03:07:24.818Z,3.43
2019-01-09T03:09:54.096Z,2.10
2019-01-09T03:12:23.307Z,2.53
2019-01-09T03:14:52.602Z,2.67
2019-01-09T03:17:21.798Z,2.50
2019-01-09T03:19:51.098Z,3.13
2019-01-09T03:22:20.312Z,2.67
2019-01-09T03:24:49.528Z,2.27
2019-01-09T03:27:18.721Z,2.87
2019-01-09T03:29:47.919Z,2.10
2019-01-09T03:32:17.112Z,2.50
2019-01-09T03:34:46.323Z,2.57
2019-01-09T03:37:15.534Z,2.50
2019-01-09T03:39:44.749Z,2.70
2019-01-09T03:42:13.982Z,2.30
2019-01-09T03:44:43.195Z,2.63
2019-01-09T03:47:12.580Z,2.60
2019-01-09T03:49:41.735Z,2.60
2019-01-09T03:52:10.921Z,1.80
2019-01-09T03:54:40.236Z,2.37
2019-01-09T03:57:09.567Z,2.20
2019-01-09T03:59:38.846Z,2.77
2019-01-09T04:02:08.288Z,2.80
2019-01-09T04:04:37.624Z,2.90
2019-01-09T04:07:06.850Z,2.30
2019-01-09T04:09:36.055Z,2.67
2019-01-09T04:12:05.266Z,2.50
2019-01-09T04:14:34.489Z,2.73
2019-01-09T04:17:03.672Z,2.70
2019-01-09T04:19:32.819Z,2.50
2019-01-09T04:22:02.001Z,2.70
2019-01-09T04:24:31.222Z,2.37
2019-01-09T04:27:00.426Z,2.30
2019-01-09T04:29:29.658Z,2.40
2019-01-09T04:31:58.858Z,2.63
2019-01-09T04:34:28.063Z,2.30
2019-01-09T04:36:57.327Z,2.40
2019-01-09T04:39:26.596Z,2.30
2019-01-09T04:41:55.838Z,2.30
2019-01-09T04:44:25.090Z,2.53
2019-01-09T04:46:54.319Z,2.07
2019-01-09T04:49:23.565Z,2.73
2019-01-09T04:51:52.817Z,2.90
2019-01-09T04:54:22.143Z,2.57
2019-01-09T04:56:51.767Z,2.80
2019-01-09T04:59:20.982Z,2.07
2019-01-09T05:01:50.261Z,2.50
2019-01-09T05:04:19.486Z,2.53
2019-01-09T05:06:48.698Z,2.43
2019-01-09T05:09:17.892Z,2.13
2019-01-09T05:11:47.147Z,4.13
2019-01-09T05:14:16.357Z,2.77
2019-01-09T05:16:45.596Z,2.77
2019-01-09T05:19:14.850Z,2.70
2019-01-09T05:21:44.153Z,2.37
2019-01-09T05:24:13.423Z,3.30
2019-01-09T05:26:42.627Z,3.13
2019-01-09T05:29:11.869Z,3.13
2019-01-09T05:31:41.128Z,3.47
2019-01-09T05:34:10.408Z,4.20
2019-01-09T05:36:39.642Z,3.30
2019-01-09T05:39:08.937Z,3.70
2019-01-09T05:41:38.251Z,4.10
2019-01-09T05:44:07.530Z,3.80
2019-01-09T05:46:36.899Z,3.50
2019-01-09T05:49:06.191Z,3.90
2019-01-09T05:51:35.520Z,3.73
2019-01-09T05:54:04.800Z,3.60
2019-01-09T05:56:34.123Z,4.00
2019-01-09T05:59:03.377Z,3.67
2019-01-09T06:01:32.681Z,4.07
2019-01-09T06:04:02.011Z,4.07
2019-01-09T06:06:31.353Z,3.20
2019-01-09T06:09:00.684Z,3.53
2019-01-09T06:11:30.098Z,3.77
2019-01-09T06:13:59.785Z,4.03
2019-01-09T06:16:29.135Z,4.80
2019-01-09T06:18:58.439Z,4.67
2019-01-09T06:21:27.784Z,4.33
2019-01-09T06:23:57.217Z,4.70
2019-01-09T06:26:26.743Z,4.77
2019-01-09T06:28:56.138Z,4.07
2019-01-09T06:31:25.650Z,4.50
2019-01-09T06:33:54.965Z,4.40
2019-01-09T06:36:24.535Z,3.83
2019-01-09T06:38:53.859Z,3.80
2019-01-09T06:41:23.312Z,3.70
2019-01-09T06:43:52.621Z,3.60
2019-01-09T06:46:22.188Z,4.03
2019-01-09T06:48:51.762Z,3.97
2019-01-09T06:51:21.586Z,4.30
2019-01-09T06:54:03.306Z,4.03
2019-01-09T06:56:32.816Z,3.20
2019-01-09T06:59:02.218Z,4.37
2019-01-09T07:01:31.830Z,5.00
2019-01-09T07:04:01.306Z,4.53
2019-01-09T07:06:30.671Z,4.10
2019-01-09T07:09:00.184Z,2.97
2019-01-09T07:11:29.631Z,3.30
2019-01-09T07:13:59.152Z,3.43
2019-01-09T07:16:28.582Z,5.60
2019-01-09T07:18:58.259Z,4.30
2019-01-09T07:21:27.746Z,3.80
2019-01-09T07:23:57.072Z,3.80
2019-01-09T07:26:26.670Z,3.67
2019-01-09T07:28:56.122Z,4.13
2019-01-09T07:31:25.571Z,3.30
2019-01-09T07:33:55.037Z,4.00
2019-01-09T07:36:24.618Z,3.43
2019-01-09T07:38:54.134Z,3.73
2019-01-09T07:41:23.449Z,3.70
2019-01-09T07:43:52.965Z,3.70
2019-01-09T07:46:22.422Z,3.70
2019-01-09T07:48:51.841Z,3.70
2019-01-09T07:51:21.306Z,3.60
2019-01-09T07:53:50.706Z,3.93
2019-01-09T07:56:20.302Z,2.73
2019-01-09T08:44:15.083Z,2.37
2019-01-09T08:46:44.295Z,2.33
2019-01-09T08:49:13.482Z,2.87
2019-01-09T08:51:42.655Z,3.10
2019-01-09T08:54:12.091Z,2.07
2019-01-09T08:56:41.271Z,2.47
2019-01-09T08:59:10.475Z,2.07
2019-01-09T09:01:39.677Z,2.57
2019-01-09T09:04:08.822Z,2.53
2019-01-09T09:06:37.965Z,3.10
2019-01-09T09:09:08.253Z,2.10
2019-01-09T09:11:37.408Z,1.90
2019-01-09T09:14:08.077Z,2.67
2019-01-09T09:16:37.385Z,2.63
2019-01-09T09:19:06.579Z,2.27
2019-01-09T09:21:35.723Z,2.50
2019-01-09T09:24:04.883Z,2.73
2019-01-09T09:26:34.038Z,2.43
2019-01-09T09:29:03.303Z,2.53
2019-01-09T09:31:32.505Z,2.40
2019-01-09T09:34:01.640Z,2.33
2019-01-09T09:36:30.830Z,2.50
2019-01-09T09:38:59.967Z,2.33
2019-01-09T09:41:29.119Z,2.87
2019-01-09T09:43:58.279Z,1.80
2019-01-09T09:46:27.426Z,2.50
2019-01-09T09:48:56.559Z,2.80
2019-01-09T09:51:25.734Z,1.80
2019-01-09T09:53:54.912Z,2.40
2019-01-09T09:56:24.067Z,2.70
2019-01-09T09:58:53.209Z,2.70
2019-01-09T10:01:22.310Z,2.27
2019-01-09T10:03:51.618Z,2.70
2019-01-09T10:06:20.814Z,2.93
2019-01-09T10:08:50.087Z,3.33
2019-01-09T10:11:19.240Z,3.30
2019-01-09T10:13:50.002Z,2.20
